createdAt,value
2018-10-18T00:00:23.697Z,50.07
2018-10-18T00:02:52.543Z,50.73
2018-10-18T00:05:21.325Z,54.07
2018-10-18T00:07:50.151Z,53.67
2018-10-18T00:10:18.932Z,61.13
2018-10-18T00:12:47.849Z,52.10
2018-10-18T00:15:16.724Z,52.77
2018-10-18T00:17:47.305Z,58.50
2018-10-18T00:20:17.039Z,51.87
2018-10-18T00:22:46.963Z,57.63
2018-10-18T00:25:16.868Z,51.27
2018-10-18T00:27:45.779Z,51.00
2018-10-18T00:30:16.232Z,56.43
2018-10-18T00:32:45.244Z,57.20
2018-10-18T00:35:14.983Z,56.03
2018-10-18T00:37:50.460Z,55.90
2018-10-18T00:40:19.351Z,53.17
2018-10-18T00:42:48.409Z,51.63
2018-10-18T00:47:56.443Z,55.80
2018-10-18T00:50:25.143Z,55.77
2018-10-18T00:52:53.918Z,58.03
2018-10-18T00:55:22.731Z,54.53
2018-10-18T00:57:51.547Z,61.17
2018-10-18T01:00:20.468Z,59.30
2018-10-18T01:02:49.804Z,61.13
2018-10-18T01:05:18.552Z,56.77
2018-10-18T01:07:48.309Z,58.83
2018-10-18T01:10:17.134Z,58.07
2018-10-18T01:12:46.152Z,58.30
2018-10-18T01:15:15.857Z,56.17
2018-10-18T01:17:44.610Z,57.60
2018-10-18T01:20:15.187Z,55.03
2018-10-18T01:22:43.974Z,54.63
2018-10-18T01:25:13.860Z,54.63
2018-10-18T01:27:42.647Z,59.73
2018-10-18T01:30:11.569Z,58.53
2018-10-18T01:32:40.325Z,55.40
2018-10-18T01:35:09.293Z,53.77
2018-10-18T01:37:38.119Z,52.80
2018-10-18T01:40:06.907Z,56.20
2018-10-18T01:42:36.094Z,58.20
2018-10-18T01:45:05.229Z,54.73
2018-10-18T01:47:34.013Z,50.50
2018-10-18T01:50:02.966Z,54.07
2018-10-18T01:52:31.674Z,55.17
2018-10-18T01:55:01.297Z,57.80
2018-10-18T01:57:30.060Z,56.83
2018-10-18T01:59:58.776Z,55.00
2018-10-18T02:02:27.505Z,55.53
2018-10-18T02:04:56.252Z,50.93
2018-10-18T02:07:24.951Z,50.63
2018-10-18T02:09:53.673Z,53.87
2018-10-18T02:12:22.378Z,60.67
2018-10-18T02:14:51.087Z,53.43
2018-10-18T02:17:19.892Z,53.17
2018-10-18T02:19:48.604Z,52.83
2018-10-18T02:22:17.369Z,50.77
2018-10-18T02:24:51.195Z,58.17
2018-10-18T02:27:19.954Z,57.03
2018-10-18T02:29:55.376Z,56.47
2018-10-18T02:32:24.053Z,59.17
2018-10-18T02:34:52.779Z,53.90
2018-10-18T02:37:21.495Z,52.87
2018-10-18T02:39:50.202Z,52.40
2018-10-18T02:42:18.988Z,74.47
2018-10-18T02:44:47.622Z,74.90
2018-10-18T02:47:16.397Z,78.73
2018-10-18T02:49:45.107Z,63.27
2018-10-18T02:52:13.950Z,65.33
2018-10-18T02:54:42.671Z,63.60
2018-10-18T02:57:11.388Z,61.00
2018-10-18T02:59:40.122Z,62.60
2018-10-18T03:02:09.332Z,56.77
2018-10-18T03:04:38.360Z,68.47
2018-10-18T03:07:07.200Z,67.13
2018-10-18T03:09:35.915Z,59.70
2018-10-18T03:12:05.070Z,76.50
2018-10-18T03:14:33.733Z,68.90
2018-10-18T03:17:02.474Z,83.70
2018-10-18T03:19:31.234Z,63.80
2018-10-18T03:21:59.974Z,60.07
2018-10-18T03:24:28.749Z,58.27
2018-10-18T03:26:57.448Z,66.67
2018-10-18T03:29:26.161Z,59.77
2018-10-18T03:31:54.929Z,67.97
2018-10-18T03:34:23.673Z,61.43
2018-10-18T03:36:52.397Z,61.27
2018-10-18T03:39:21.145Z,68.47
2018-10-18T03:41:49.943Z,66.23
2018-10-18T03:44:18.768Z,63.97
2018-10-18T03:46:47.730Z,67.50
2018-10-18T03:49:16.558Z,73.70
2018-10-18T03:51:45.286Z,68.57
2018-10-18T03:54:14.141Z,64.50
2018-10-18T03:56:42.882Z,63.50
2018-10-18T03:59:11.615Z,66.63
2018-10-18T04:01:40.315Z,67.57
2018-10-18T04:04:09.068Z,65.17
2018-10-18T04:06:37.920Z,64.57
2018-10-18T04:09:08.455Z,69.33
2018-10-18T04:11:37.283Z,65.53
2018-10-18T04:14:06.299Z,65.10
2018-10-18T04:16:35.089Z,69.40
2018-10-18T04:19:03.810Z,62.93
2018-10-18T04:21:32.535Z,68.10
2018-10-18T04:24:01.313Z,72.40
2018-10-18T04:26:29.997Z,66.70
2018-10-18T04:28:58.705Z,68.33
2018-10-18T04:31:27.404Z,70.53
2018-10-18T04:33:56.139Z,71.83
2018-10-18T04:36:24.877Z,74.47
2018-10-18T04:38:53.601Z,73.43
2018-10-18T04:41:22.346Z,72.83
2018-10-18T04:43:51.092Z,73.43
2018-10-18T04:46:19.924Z,70.57
2018-10-18T04:48:48.810Z,68.83
2018-10-18T04:51:17.578Z,70.50
2018-10-18T04:53:46.953Z,69.77
2018-10-18T04:56:16.228Z,72.57
2018-10-18T04:58:44.956Z,70.13
2018-10-18T05:01:13.768Z,71.33
2018-10-18T05:03:42.467Z,72.60
2018-10-18T05:06:11.174Z,68.07
2018-10-18T05:08:39.875Z,73.37
2018-10-18T05:11:08.643Z,77.67
2018-10-18T05:13:37.348Z,70.57
2018-10-18T05:16:06.152Z,75.97
2018-10-18T05:18:34.900Z,69.60
2018-10-18T05:21:03.691Z,75.63
2018-10-18T05:23:32.407Z,83.77
2018-10-18T05:26:01.123Z,79.87
2018-10-18T05:28:29.878Z,90.53
2018-10-18T05:30:58.924Z,89.10
2018-10-18T05:33:27.662Z,100.27
2018-10-18T05:35:56.395Z,106.80
2018-10-18T05:38:25.210Z,98.67
2018-10-18T05:40:54.270Z,113.80
2018-10-18T05:43:23.864Z,112.80
2018-10-18T05:45:53.429Z,112.77
2018-10-18T05:48:22.191Z,118.40
2018-10-18T05:50:50.859Z,112.30
2018-10-18T05:53:19.654Z,109.97
2018-10-18T05:55:48.343Z,115.43
2018-10-18T05:58:17.059Z,127.33
2018-10-18T06:00:45.809Z,117.07
2018-10-18T06:03:14.647Z,108.00
2018-10-18T06:05:43.370Z,113.03
2018-10-18T06:08:12.076Z,114.57
2018-10-18T06:10:52.231Z,117.53
2018-10-18T06:13:20.973Z,109.27
2018-10-18T06:15:49.686Z,106.87
2018-10-18T06:18:18.382Z,104.87
2018-10-18T06:20:47.241Z,120.93
2018-10-18T06:23:16.129Z,125.47
2018-10-18T06:25:44.785Z,121.73
2018-10-18T06:28:13.548Z,128.37
2018-10-18T06:30:42.274Z,127.20
2018-10-18T06:33:11.004Z,126.43
2018-10-18T06:35:39.730Z,122.83
2018-10-18T06:38:08.483Z,115.73
2018-10-18T06:40:37.256Z,104.07
2018-10-18T06:43:06.071Z,123.97
2018-10-18T06:45:34.822Z,128.53
2018-10-18T06:48:03.570Z,119.97
2018-10-18T06:50:32.398Z,125.37
2018-10-18T06:53:01.306Z,121.67
2018-10-18T06:55:30.057Z,124.60
2018-10-18T06:57:58.757Z,118.37
2018-10-18T07:00:27.539Z,134.73
2018-10-18T07:02:56.206Z,130.00
2018-10-18T07:05:24.942Z,115.93
2018-10-18T07:07:54.560Z,124.17
2018-10-18T07:10:23.252Z,149.47
2018-10-18T07:12:51.978Z,119.13
2018-10-18T07:15:20.732Z,119.77
2018-10-18T07:17:49.533Z,124.00
2018-10-18T07:20:23.233Z,117.47
2018-10-18T07:22:52.132Z,128.57
2018-10-18T07:25:20.930Z,124.23
2018-10-18T07:27:49.673Z,124.27
2018-10-18T07:30:18.471Z,130.50
2018-10-18T07:32:47.219Z,127.53
2018-10-18T07:35:16.157Z,121.67
2018-10-18T07:37:44.926Z,125.97
2018-10-18T07:40:15.065Z,130.93
2018-10-18T07:42:43.840Z,128.13
2018-10-18T07:45:13.509Z,134.37
2018-10-18T07:47:42.866Z,140.40
2018-10-18T07:50:12.169Z,127.73
2018-10-18T07:52:40.958Z,145.47
2018-10-18T07:55:10.424Z,152.33
2018-10-18T07:57:39.791Z,152.47
2018-10-18T08:00:10.729Z,153.60
2018-10-18T08:02:39.664Z,153.40
2018-10-18T08:05:08.970Z,145.33
2018-10-18T08:07:37.970Z,153.17
2018-10-18T08:10:10.120Z,165.87
2018-10-18T08:12:38.991Z,155.47
2018-10-18T08:15:08.526Z,149.90
2018-10-18T08:17:37.228Z,151.17
2018-10-18T08:20:06.739Z,155.73
2018-10-18T08:22:35.572Z,159.03
2018-10-18T08:25:04.403Z,165.20
2018-10-18T08:27:34.765Z,158.13
2018-10-18T08:30:04.320Z,166.27
2018-10-18T08:32:33.089Z,169.00
2018-10-18T08:35:01.822Z,156.87
2018-10-18T08:37:30.604Z,158.83
2018-10-18T08:39:59.299Z,161.57
2018-10-18T08:42:28.019Z,148.13
2018-10-18T08:44:57.157Z,147.47
2018-10-18T08:47:25.487Z,149.93
2018-10-18T08:49:54.398Z,157.30
2018-10-18T08:52:24.717Z,142.90
2018-10-18T08:54:55.463Z,141.73
2018-10-18T08:57:24.139Z,142.83
2018-10-18T08:59:52.852Z,141.37
2018-10-18T09:02:22.090Z,138.83
2018-10-18T09:04:51.697Z,134.50
2018-10-18T09:07:20.766Z,138.07
2018-10-18T09:09:50.533Z,138.70
2018-10-18T09:12:19.376Z,143.13
2018-10-18T09:14:48.069Z,147.83
2018-10-18T09:17:16.793Z,132.43
2018-10-18T09:19:45.535Z,140.30
2018-10-18T09:22:14.315Z,160.90
2018-10-18T09:24:43.019Z,140.57
2018-10-18T09:27:11.849Z,149.70
2018-10-18T09:29:40.573Z,156.43
2018-10-18T09:32:09.522Z,149.87
2018-10-18T09:34:38.417Z,152.40
2018-10-18T09:37:07.313Z,153.77
2018-10-18T09:39:35.992Z,157.77
2018-10-18T09:42:05.537Z,155.90
2018-10-18T09:44:34.358Z,141.63
2018-10-18T09:47:03.136Z,139.67
2018-10-18T09:49:31.870Z,141.20
2018-10-18T09:52:00.651Z,129.83
2018-10-18T09:54:29.392Z,140.93
2018-10-18T09:56:58.139Z,144.40
2018-10-18T09:59:26.884Z,146.73
2018-10-18T10:02:01.036Z,147.77
2018-10-18T10:04:29.898Z,143.43
2018-10-18T10:06:58.663Z,152.37
2018-10-18T10:09:27.403Z,151.17
2018-10-18T10:11:56.181Z,145.83
2018-10-18T10:14:24.941Z,158.03
2018-10-18T10:16:53.644Z,158.23
2018-10-18T10:19:23.118Z,154.00
2018-10-18T10:21:52.297Z,164.83
2018-10-18T10:24:22.119Z,169.83
2018-10-18T10:26:52.085Z,153.13
2018-10-18T10:29:21.010Z,159.20
2018-10-18T10:31:56.475Z,169.10
2018-10-18T10:34:25.276Z,148.53
2018-10-18T10:36:54.012Z,158.83
2018-10-18T10:39:22.751Z,168.53
2018-10-18T10:41:51.641Z,153.43
2018-10-18T10:44:21.101Z,144.80
2018-10-18T10:46:49.883Z,147.43
2018-10-18T10:49:18.734Z,153.40
2018-10-18T10:51:47.603Z,145.40
2018-10-18T10:54:17.352Z,131.17
2018-10-18T10:56:46.068Z,137.87
2018-10-18T10:59:19.160Z,145.20
2018-10-18T11:01:47.871Z,134.00
2018-10-18T11:04:16.717Z,138.07
2018-10-18T11:06:45.577Z,139.40
2018-10-18T11:09:15.880Z,139.30
2018-10-18T11:11:49.191Z,133.70
2018-10-18T11:14:18.654Z,125.50
2018-10-18T11:16:47.419Z,133.73
2018-10-18T11:19:16.230Z,131.80
2018-10-18T11:21:44.963Z,131.23
2018-10-18T11:24:13.763Z,134.73
2018-10-18T11:26:42.410Z,126.60
2018-10-18T11:29:11.185Z,134.37
2018-10-18T11:31:39.985Z,124.10
2018-10-18T11:34:08.732Z,108.80
2018-10-18T11:36:37.443Z,111.17
2018-10-18T11:39:07.899Z,122.13
2018-10-18T11:41:37.724Z,127.03
2018-10-18T11:44:06.816Z,129.77
2018-10-18T11:46:36.091Z,142.47
2018-10-18T11:49:06.416Z,159.67
2018-10-18T11:51:35.344Z,159.83
2018-10-18T11:54:03.997Z,156.83
2018-10-18T11:56:33.217Z,153.90
2018-10-18T11:59:02.139Z,158.03
2018-10-18T12:01:30.875Z,147.90
2018-10-18T12:03:59.672Z,162.23
2018-10-18T12:06:28.716Z,144.23
2018-10-18T12:08:57.521Z,148.43
2018-10-18T12:11:26.232Z,140.60
2018-10-18T12:13:57.011Z,136.47
2018-10-18T12:16:31.271Z,133.20
2018-10-18T12:19:00.033Z,126.30
2018-10-18T12:21:28.736Z,120.27
2018-10-18T12:24:03.189Z,108.37
2018-10-18T12:26:32.344Z,106.13
2018-10-18T12:29:01.163Z,105.47
2018-10-18T12:31:30.504Z,94.13
2018-10-18T12:33:59.234Z,80.03
2018-10-18T12:36:30.278Z,76.07
2018-10-18T12:39:01.274Z,70.07
2018-10-18T12:41:32.022Z,62.77
2018-10-18T12:44:01.836Z,57.00
2018-10-18T12:46:32.923Z,56.97
2018-10-18T12:49:02.419Z,48.17
2018-10-18T12:51:31.137Z,48.90
2018-10-18T12:53:59.877Z,50.33
2018-10-18T12:56:28.555Z,47.93
2018-10-18T12:58:58.312Z,49.23
2018-10-18T13:01:32.216Z,49.33
2018-10-18T13:04:01.000Z,49.17
2018-10-18T13:06:29.717Z,48.43
2018-10-18T13:09:03.578Z,43.10
2018-10-18T13:11:34.129Z,42.87
2018-10-18T13:14:05.854Z,43.57
2018-10-18T13:16:36.208Z,39.53
2018-10-18T13:19:07.768Z,45.33
2018-10-18T13:21:36.514Z,44.53
2018-10-18T13:24:05.629Z,41.43
2018-10-18T13:26:34.841Z,36.37
2018-10-18T13:29:03.530Z,34.00
2018-10-18T13:31:32.240Z,34.83
2018-10-18T13:34:00.998Z,32.03
2018-10-18T13:36:29.995Z,32.40
2018-10-18T13:39:06.374Z,38.47
2018-10-18T13:41:35.474Z,30.40
2018-10-18T13:44:04.407Z,33.60
2018-10-18T13:46:34.169Z,34.23
2018-10-18T13:49:02.994Z,26.00
2018-10-18T13:51:31.911Z,26.70
2018-10-18T13:54:00.767Z,27.80
2018-10-18T13:59:17.471Z,28.77
2018-10-18T14:01:46.065Z,28.80
2018-10-18T14:04:15.114Z,26.30
2018-10-18T14:06:43.879Z,21.33
2018-10-18T14:09:12.662Z,28.97
2018-10-18T14:11:41.512Z,34.50
2018-10-18T14:14:10.348Z,30.03
2018-10-18T14:16:39.106Z,18.97
2018-10-18T14:19:08.316Z,29.70
2018-10-18T14:21:37.087Z,22.83
2018-10-18T14:24:06.651Z,26.67
2018-10-18T14:26:35.422Z,22.83
2018-10-18T14:29:04.747Z,23.47
2018-10-18T14:31:33.533Z,29.33
2018-10-18T14:34:02.817Z,20.20
2018-10-18T14:36:31.665Z,27.53
2018-10-18T14:39:00.572Z,49.00
2018-10-18T14:41:29.363Z,40.70
2018-10-18T14:43:58.742Z,24.30
2018-10-18T14:46:27.646Z,17.87
2018-10-18T14:48:56.491Z,21.97
2018-10-18T14:51:25.885Z,33.97
2018-10-18T14:53:54.681Z,24.47
2018-10-18T14:56:25.393Z,17.53
2018-10-18T14:58:56.031Z,17.07
2018-10-18T15:01:29.866Z,19.57
2018-10-18T15:03:59.076Z,14.73
2018-10-18T15:06:27.861Z,16.73
2018-10-18T15:08:59.703Z,51.53
2018-10-18T15:11:31.645Z,51.97
2018-10-18T15:14:01.909Z,25.77
2018-10-18T15:16:30.800Z,15.57
2018-10-18T15:18:59.654Z,13.47
2018-10-18T15:21:28.463Z,13.37
2018-10-18T15:23:57.532Z,16.97
2018-10-18T15:26:26.529Z,17.07
2018-10-18T15:28:55.288Z,17.07
2018-10-18T15:31:24.071Z,15.23
2018-10-18T15:33:53.388Z,18.70
2018-10-18T15:36:23.835Z,20.93
2018-10-18T15:38:52.866Z,16.67
2018-10-18T15:41:21.489Z,13.77
2018-10-18T15:43:50.361Z,19.27
2018-10-18T15:46:20.423Z,20.40
2018-10-18T15:48:49.214Z,16.80
2018-10-18T15:51:18.567Z,13.13
2018-10-18T15:53:47.456Z,12.03
2018-10-18T15:56:16.462Z,15.10
2018-10-18T15:58:45.252Z,17.73
2018-10-18T16:01:14.402Z,23.13
2018-10-18T16:03:43.390Z,15.13
2018-10-18T16:06:12.582Z,17.23
2018-10-18T16:08:43.555Z,13.73
2018-10-18T16:11:14.496Z,19.23
2018-10-18T16:13:43.285Z,16.77
2018-10-18T16:16:12.404Z,18.60
2018-10-18T16:18:41.251Z,20.20
2018-10-18T16:21:10.067Z,16.97
2018-10-18T16:23:39.376Z,18.43
2018-10-18T16:26:08.611Z,19.10
2018-10-18T16:28:37.367Z,15.40
2018-10-18T16:31:06.138Z,20.90
2018-10-18T16:33:35.199Z,15.80
2018-10-18T16:36:03.916Z,16.67
2018-10-18T16:38:33.001Z,13.37
2018-10-18T16:41:02.517Z,10.50
2018-10-18T16:43:32.506Z,12.53
2018-10-18T16:46:03.681Z,15.53
2018-10-18T16:48:36.626Z,14.03
2018-10-18T16:51:05.679Z,15.47
2018-10-18T16:53:34.648Z,17.87
2018-10-18T16:56:03.811Z,16.33
2018-10-18T16:58:33.562Z,16.70
2018-10-18T17:01:02.323Z,17.67
2018-10-18T17:03:31.108Z,20.27
2018-10-18T17:05:59.900Z,17.10
2018-10-18T17:08:28.661Z,11.23
2018-10-18T17:10:57.584Z,13.80
2018-10-18T17:13:26.504Z,11.33
2018-10-18T17:15:56.111Z,11.40
2018-10-18T17:18:27.589Z,12.73
2018-10-18T17:20:59.091Z,17.40
2018-10-18T17:23:29.254Z,19.80
2018-10-18T17:25:58.162Z,12.47
2018-10-18T17:28:29.760Z,12.87
2018-10-18T17:30:58.880Z,13.97
2018-10-18T17:33:28.281Z,12.60
2018-10-18T17:35:57.271Z,11.60
2018-10-18T17:38:26.714Z,16.53
2018-10-18T17:40:55.456Z,15.83
2018-10-18T17:43:24.222Z,13.87
2018-10-18T17:45:53.019Z,15.80
2018-10-18T17:48:21.731Z,16.37
2018-10-18T17:50:50.527Z,17.40
2018-10-18T17:53:19.347Z,14.73
2018-10-18T17:55:48.135Z,15.10
2018-10-18T17:58:17.057Z,13.37
2018-10-18T18:00:46.105Z,14.03
2018-10-18T18:03:14.824Z,16.03
2018-10-18T18:05:43.595Z,14.37
2018-10-18T18:08:12.332Z,11.03
2018-10-18T18:10:41.039Z,17.43
2018-10-18T18:13:09.790Z,15.73
2018-10-18T18:15:38.540Z,19.30
2018-10-18T18:18:07.299Z,9.97
2018-10-18T18:20:36.007Z,13.33
2018-10-18T18:23:05.281Z,15.57
2018-10-18T18:25:34.008Z,16.23
2018-10-18T18:28:03.276Z,19.13
2018-10-18T18:30:32.049Z,14.30
2018-10-18T18:33:00.777Z,16.10
2018-10-18T18:35:29.519Z,15.13
2018-10-18T18:37:58.358Z,31.20
2018-10-18T18:40:27.081Z,22.50
2018-10-18T18:42:56.004Z,21.50
2018-10-18T18:45:29.063Z,21.70
2018-10-18T18:47:57.758Z,21.30
2018-10-18T18:50:26.689Z,28.77
2018-10-18T18:52:55.537Z,35.10
2018-10-18T18:55:24.313Z,25.57
2018-10-18T18:57:53.040Z,17.30
2018-10-18T19:00:21.867Z,15.87
2018-10-18T19:02:50.470Z,13.40
2018-10-18T19:05:19.227Z,14.20
2018-10-18T19:07:47.939Z,16.60
2018-10-18T19:10:16.640Z,14.90
2018-10-18T19:12:45.480Z,16.70
2018-10-18T19:15:14.541Z,21.00
2018-10-18T19:17:43.156Z,14.70
2018-10-18T19:20:11.883Z,14.70
2018-10-18T19:22:40.757Z,18.73
2018-10-18T19:25:09.483Z,14.87
2018-10-18T19:27:43.220Z,17.57
2018-10-18T19:30:12.383Z,16.90
2018-10-18T19:32:41.166Z,20.07
2018-10-18T19:35:09.886Z,15.23
2018-10-18T19:37:38.611Z,26.50
2018-10-18T19:40:07.847Z,15.30
2018-10-18T19:42:36.654Z,17.00
2018-10-18T19:45:06.584Z,20.00
2018-10-18T19:47:35.356Z,14.63
2018-10-18T19:50:04.313Z,10.10
2018-10-18T19:55:09.076Z,15.50
2018-10-18T19:57:38.162Z,15.33
2018-10-18T20:00:08.036Z,16.17
2018-10-18T20:02:37.081Z,21.37
2018-10-18T20:05:06.410Z,18.20
2018-10-18T20:07:35.803Z,24.10
2018-10-18T20:10:04.853Z,17.70
2018-10-18T20:12:33.583Z,23.80
2018-10-18T20:15:02.363Z,35.20
2018-10-18T20:17:31.070Z,25.33
2018-10-18T20:19:59.822Z,23.67
2018-10-18T20:22:28.614Z,44.20
2018-10-18T20:24:57.447Z,34.90
2018-10-18T20:27:26.078Z,22.37
2018-10-18T20:29:54.834Z,14.83
2018-10-18T20:32:23.588Z,13.03
2018-10-18T20:37:27.603Z,16.23
2018-10-18T20:39:56.569Z,14.70
2018-10-18T20:42:25.109Z,22.73
2018-10-18T20:44:53.829Z,20.77
2018-10-18T20:47:22.639Z,13.77
2018-10-18T20:49:51.297Z,14.97
2018-10-18T20:52:20.142Z,15.70
2018-10-18T20:54:48.971Z,12.70
2018-10-18T20:57:24.457Z,9.87
2018-10-18T20:59:53.271Z,10.83
2018-10-18T21:02:22.081Z,11.83
2018-10-18T21:04:50.811Z,16.17
2018-10-18T21:07:19.719Z,12.67
2018-10-18T21:09:49.315Z,12.53
2018-10-18T21:12:18.627Z,64.73
2018-10-18T21:14:48.157Z,38.53
2018-10-18T21:17:17.159Z,20.50
2018-10-18T21:19:46.142Z,13.50
2018-10-18T21:22:14.856Z,12.17
2018-10-18T21:24:43.578Z,12.47
2018-10-18T21:27:12.414Z,10.13
2018-10-18T21:29:41.091Z,12.93
2018-10-18T21:32:09.917Z,16.33
2018-10-18T21:34:38.699Z,10.73
2018-10-18T21:37:07.579Z,10.60
2018-10-18T21:39:36.652Z,11.53
2018-10-18T21:42:05.664Z,11.10
2018-10-18T21:44:36.560Z,13.97
2018-10-18T21:47:05.479Z,12.93
2018-10-18T21:49:34.173Z,14.37
2018-10-18T21:52:02.936Z,10.80
2018-10-18T21:54:31.671Z,14.07
2018-10-18T21:57:00.558Z,10.73
2018-10-18T21:59:29.481Z,14.50
2018-10-18T22:01:58.276Z,13.60
2018-10-18T22:04:27.067Z,11.10
2018-10-18T22:06:55.829Z,12.13
2018-10-18T22:09:24.704Z,12.90
2018-10-18T22:11:53.483Z,12.33
2018-10-18T22:14:22.291Z,11.50
2018-10-18T22:16:50.990Z,12.93
2018-10-18T22:19:19.700Z,14.07
2018-10-18T22:21:48.517Z,9.07
2018-10-18T22:24:17.252Z,10.63
2018-10-18T22:26:46.111Z,10.50
2018-10-18T22:29:14.913Z,10.07
2018-10-18T22:31:43.687Z,13.17
2018-10-18T22:34:13.437Z,12.30
2018-10-18T22:36:42.138Z,11.93
2018-10-18T22:39:11.778Z,9.10
2018-10-18T22:41:40.939Z,9.83
2018-10-18T22:44:10.407Z,14.37
2018-10-18T22:46:39.164Z,12.23
2018-10-18T22:49:07.903Z,10.03
2018-10-18T22:51:36.785Z,19.10
2018-10-18T22:54:05.760Z,56.67
2018-10-18T22:56:34.605Z,34.43
2018-10-18T22:59:03.415Z,17.30
2018-10-18T23:01:32.160Z,13.30
2018-10-18T23:04:00.924Z,12.40
2018-10-18T23:06:29.695Z,10.03
2018-10-18T23:08:58.472Z,10.47
2018-10-18T23:11:27.223Z,16.23
2018-10-18T23:13:55.988Z,12.93
2018-10-18T23:16:24.764Z,12.33
2018-10-18T23:18:53.495Z,8.07
2018-10-18T23:21:25.452Z,9.60
2018-10-18T23:24:08.049Z,11.67
2018-10-18T23:26:37.439Z,7.20
2018-10-18T23:29:06.374Z,15.00
2018-10-18T23:31:35.081Z,8.47
2018-10-18T23:34:03.802Z,10.20
2018-10-18T23:36:32.570Z,8.70
2018-10-18T23:39:01.434Z,9.87
2018-10-18T23:41:30.104Z,9.67
2018-10-18T23:43:59.137Z,11.97
2018-10-18T23:46:27.928Z,11.30
2018-10-18T23:48:56.924Z,10.23
2018-10-18T23:54:02.715Z,11.57
2018-10-18T23:56:31.490Z,11.83
2018-10-18T23:59:00.293Z,14.13
